sensor_id;sensor_type;location;lat;lon;timestamp;P1;durP1;ratioP1;P2;durP2;ratioP2
16197;SDS011;8206;51.440;6.914;2024-02-21T00:00:09;6.50;;;4.70;;
16197;SDS011;8206;51.440;6.914;2024-02-21T00:02:37;4.17;;;3.80;;
16197;SDS011;8206;51.440;6.914;2024-02-21T00:05:04;7.70;;;4.00;;
16197;SDS011;8206;51.440;6.914;2024-02-21T00:07:32;6.97;;;4.07;;
16197;SDS011;8206;51.440;6.914;2024-02-21T00:09:59;1.83;;;1.50;;
16197;SDS011;8206;51.440;6.914;2024-02-21T00:12:25;6.37;;;3.33;;
16197;SDS011;8206;51.440;6.914;2024-02-21T00:14:52;5.60;;;4.57;;
16197;SDS011;8206;51.440;6.914;2024-02-21T00:17:19;2.70;;;1.93;;
16197;SDS011;8206;51.440;6.914;2024-02-21T00:19:45;11.30;;;3.37;;
16197;SDS011;8206;51.440;6.914;2024-02-21T00:22:12;7.70;;;4.23;;
16197;SDS011;8206;51.440;6.914;2024-02-21T00:24:40;3.60;;;3.37;;
16197;SDS011;8206;51.440;6.914;2024-02-21T00:27:07;10.47;;;4.30;;
16197;SDS011;8206;51.440;6.914;2024-02-21T00:29:34;3.33;;;3.13;;
16197;SDS011;8206;51.440;6.914;2024-02-21T00:32:01;3.80;;;3.03;;
16197;SDS011;8206;51.440;6.914;2024-02-21T00:34:27;3.13;;;2.93;;
16197;SDS011;8206;51.440;6.914;2024-02-21T00:36:54;2.03;;;1.93;;
16197;SDS011;8206;51.440;6.914;2024-02-21T00:39:21;2.47;;;2.27;;
16197;SDS011;8206;51.440;6.914;2024-02-21T00:41:49;7.33;;;3.97;;
16197;SDS011;8206;51.440;6.914;2024-02-21T00:44:15;3.70;;;3.40;;
16197;SDS011;8206;51.440;6.914;2024-02-21T00:46:41;2.97;;;2.23;;
16197;SDS011;8206;51.440;6.914;2024-02-21T00:49:08;3.87;;;3.37;;
16197;SDS011;8206;51.440;6.914;2024-02-21T00:51:34;11.67;;;4.20;;
16197;SDS011;8206;51.440;6.914;2024-02-21T00:54:01;5.07;;;2.93;;
16197;SDS011;8206;51.440;6.914;2024-02-21T00:56:28;13.27;;;3.77;;
16197;SDS011;8206;51.440;6.914;2024-02-21T00:58:56;3.53;;;3.23;;
16197;SDS011;8206;51.440;6.914;2024-02-21T01:01:23;5.60;;;3.87;;
16197;SDS011;8206;51.440;6.914;2024-02-21T01:03:51;8.13;;;5.40;;
16197;SDS011;8206;51.440;6.914;2024-02-21T01:06:18;19.43;;;5.27;;
16197;SDS011;8206;51.440;6.914;2024-02-21T01:08:45;5.33;;;4.83;;
16197;SDS011;8206;51.440;6.914;2024-02-21T01:11:12;3.47;;;2.80;;
16197;SDS011;8206;51.440;6.914;2024-02-21T01:13:39;5.20;;;3.60;;
16197;SDS011;8206;51.440;6.914;2024-02-21T01:16:07;3.50;;;3.20;;
16197;SDS011;8206;51.440;6.914;2024-02-21T01:18:33;3.47;;;3.30;;
16197;SDS011;8206;51.440;6.914;2024-02-21T01:21:00;2.70;;;2.57;;
16197;SDS011;8206;51.440;6.914;2024-02-21T01:23:27;4.33;;;3.30;;
16197;SDS011;8206;51.440;6.914;2024-02-21T01:25:54;5.10;;;4.30;;
16197;SDS011;8206;51.440;6.914;2024-02-21T01:28:21;8.03;;;4.17;;
16197;SDS011;8206;51.440;6.914;2024-02-21T01:30:47;5.43;;;4.57;;
16197;SDS011;8206;51.440;6.914;2024-02-21T01:33:15;2.93;;;2.80;;
16197;SDS011;8206;51.440;6.914;2024-02-21T01:35:42;8.47;;;4.80;;
16197;SDS011;8206;51.440;6.914;2024-02-21T01:38:09;4.60;;;3.53;;
16197;SDS011;8206;51.440;6.914;2024-02-21T01:40:36;2.17;;;2.00;;
16197;SDS011;8206;51.440;6.914;2024-02-21T01:43:03;10.97;;;3.53;;
16197;SDS011;8206;51.440;6.914;2024-02-21T01:45:30;2.23;;;2.13;;
16197;SDS011;8206;51.440;6.914;2024-02-21T01:47:57;7.63;;;4.67;;
16197;SDS011;8206;51.440;6.914;2024-02-21T01:50:25;6.90;;;3.00;;
16197;SDS011;8206;51.440;6.914;2024-02-21T01:52:52;7.80;;;2.73;;
16197;SDS011;8206;51.440;6.914;2024-02-21T01:55:18;4.13;;;3.83;;
16197;SDS011;8206;51.440;6.914;2024-02-21T01:57:45;3.27;;;2.97;;
16197;SDS011;8206;51.440;6.914;2024-02-21T02:00:13;25.80;;;4.53;;
16197;SDS011;8206;51.440;6.914;2024-02-21T02:02:40;1.93;;;1.83;;
16197;SDS011;8206;51.440;6.914;2024-02-21T02:05:08;4.17;;;3.87;;
16197;SDS011;8206;51.440;6.914;2024-02-21T02:07:37;6.83;;;4.30;;
16197;SDS011;8206;51.440;6.914;2024-02-21T02:10:05;3.57;;;3.07;;
16197;SDS011;8206;51.440;6.914;2024-02-21T02:12:32;15.90;;;4.60;;
16197;SDS011;8206;51.440;6.914;2024-02-21T02:14:59;4.80;;;3.43;;
16197;SDS011;8206;51.440;6.914;2024-02-21T02:17:26;1.93;;;1.70;;
16197;SDS011;8206;51.440;6.914;2024-02-21T02:19:52;14.77;;;3.67;;
16197;SDS011;8206;51.440;6.914;2024-02-21T02:22:21;4.10;;;3.80;;
16197;SDS011;8206;51.440;6.914;2024-02-21T02:24:52;4.00;;;3.63;;
16197;SDS011;8206;51.440;6.914;2024-02-21T02:27:19;2.73;;;2.37;;
16197;SDS011;8206;51.440;6.914;2024-02-21T02:29:45;16.03;;;4.20;;
16197;SDS011;8206;51.440;6.914;2024-02-21T02:32:12;3.17;;;2.97;;
16197;SDS011;8206;51.440;6.914;2024-02-21T02:34:39;4.27;;;3.93;;
16197;SDS011;8206;51.440;6.914;2024-02-21T02:37:05;23.17;;;3.53;;
16197;SDS011;8206;51.440;6.914;2024-02-21T02:39:32;2.23;;;2.13;;
16197;SDS011;8206;51.440;6.914;2024-02-21T02:42:01;3.23;;;3.03;;
16197;SDS011;8206;51.440;6.914;2024-02-21T02:44:27;3.50;;;3.23;;
16197;SDS011;8206;51.440;6.914;2024-02-21T02:46:54;4.07;;;3.20;;
16197;SDS011;8206;51.440;6.914;2024-02-21T02:49:21;7.60;;;4.10;;
16197;SDS011;8206;51.440;6.914;2024-02-21T02:51:48;5.13;;;2.50;;
16197;SDS011;8206;51.440;6.914;2024-02-21T02:54:14;1.83;;;1.73;;
16197;SDS011;8206;51.440;6.914;2024-02-21T02:56:41;6.97;;;2.47;;
16197;SDS011;8206;51.440;6.914;2024-02-21T02:59:09;3.63;;;3.30;;
16197;SDS011;8206;51.440;6.914;2024-02-21T03:01:36;3.80;;;1.93;;
16197;SDS011;8206;51.440;6.914;2024-02-21T03:04:03;3.30;;;2.33;;
16197;SDS011;8206;51.440;6.914;2024-02-21T03:06:30;19.80;;;3.97;;
16197;SDS011;8206;51.440;6.914;2024-02-21T03:08:56;21.13;;;3.77;;
16197;SDS011;8206;51.440;6.914;2024-02-21T03:11:24;3.03;;;2.67;;
16197;SDS011;8206;51.440;6.914;2024-02-21T03:13:54;2.97;;;2.77;;
16197;SDS011;8206;51.440;6.914;2024-02-21T03:16:22;2.27;;;2.07;;
16197;SDS011;8206;51.440;6.914;2024-02-21T03:18:49;4.40;;;4.03;;
16197;SDS011;8206;51.440;6.914;2024-02-21T03:21:16;15.10;;;4.00;;
16197;SDS011;8206;51.440;6.914;2024-02-21T03:23:42;5.73;;;3.87;;
16197;SDS011;8206;51.440;6.914;2024-02-21T03:26:09;4.23;;;3.37;;
16197;SDS011;8206;51.440;6.914;2024-02-21T03:28:36;2.80;;;2.60;;
16197;SDS011;8206;51.440;6.914;2024-02-21T03:31:04;1.50;;;1.50;;
16197;SDS011;8206;51.440;6.914;2024-02-21T03:33:32;3.10;;;2.00;;
16197;SDS011;8206;51.440;6.914;2024-02-21T03:35:59;2.40;;;2.20;;
16197;SDS011;8206;51.440;6.914;2024-02-21T03:38:26;4.33;;;4.00;;
16197;SDS011;8206;51.440;6.914;2024-02-21T03:40:52;5.83;;;4.03;;
16197;SDS011;8206;51.440;6.914;2024-02-21T03:43:19;3.57;;;2.67;;
16197;SDS011;8206;51.440;6.914;2024-02-21T03:45:46;15.07;;;2.77;;
16197;SDS011;8206;51.440;6.914;2024-02-21T03:48:12;8.37;;;3.87;;
16197;SDS011;8206;51.440;6.914;2024-02-21T03:50:40;3.40;;;2.70;;
16197;SDS011;8206;51.440;6.914;2024-02-21T03:53:08;2.70;;;2.47;;
16197;SDS011;8206;51.440;6.914;2024-02-21T03:55:34;3.83;;;2.53;;
16197;SDS011;8206;51.440;6.914;2024-02-21T03:58:01;4.07;;;2.77;;
16197;SDS011;8206;51.440;6.914;2024-02-21T04:00:28;9.20;;;2.77;;
16197;SDS011;8206;51.440;6.914;2024-02-21T04:02:55;4.77;;;4.37;;
16197;SDS011;8206;51.440;6.914;2024-02-21T04:05:21;4.83;;;4.27;;
16197;SDS011;8206;51.440;6.914;2024-02-21T04:07:49;2.07;;;1.97;;
16197;SDS011;8206;51.440;6.914;2024-02-21T04:10:17;5.23;;;3.00;;
16197;SDS011;8206;51.440;6.914;2024-02-21T04:12:43;7.47;;;2.67;;
16197;SDS011;8206;51.440;6.914;2024-02-21T04:15:10;1.97;;;1.80;;
16197;SDS011;8206;51.440;6.914;2024-02-21T04:17:37;12.20;;;3.47;;
16197;SDS011;8206;51.440;6.914;2024-02-21T04:20:04;4.07;;;3.17;;
16197;SDS011;8206;51.440;6.914;2024-02-21T04:22:32;4.13;;;2.93;;
16197;SDS011;8206;51.440;6.914;2024-02-21T04:25:01;3.27;;;2.97;;
16197;SDS011;8206;51.440;6.914;2024-02-21T04:27:27;4.47;;;4.17;;
16197;SDS011;8206;51.440;6.914;2024-02-21T04:29:54;24.60;;;3.30;;
16197;SDS011;8206;51.440;6.914;2024-02-21T04:32:21;2.40;;;1.87;;
16197;SDS011;8206;51.440;6.914;2024-02-21T04:34:48;7.23;;;2.77;;
16197;SDS011;8206;51.440;6.914;2024-02-21T04:37:14;3.10;;;2.20;;
16197;SDS011;8206;51.440;6.914;2024-02-21T04:39:41;2.00;;;1.80;;
16197;SDS011;8206;51.440;6.914;2024-02-21T04:42:09;14.83;;;3.33;;
16197;SDS011;8206;51.440;6.914;2024-02-21T04:44:36;12.40;;;3.20;;
16197;SDS011;8206;51.440;6.914;2024-02-21T04:47:03;4.10;;;3.80;;
16197;SDS011;8206;51.440;6.914;2024-02-21T04:49:30;10.00;;;3.77;;
16197;SDS011;8206;51.440;6.914;2024-02-21T04:51:56;2.17;;;2.03;;
16197;SDS011;8206;51.440;6.914;2024-02-21T04:54:23;2.53;;;2.20;;
16197;SDS011;8206;51.440;6.914;2024-02-21T04:56:50;4.40;;;2.93;;
16197;SDS011;8206;51.440;6.914;2024-02-21T04:59:18;2.37;;;2.17;;
16197;SDS011;8206;51.440;6.914;2024-02-21T05:01:45;3.77;;;3.43;;
16197;SDS011;8206;51.440;6.914;2024-02-21T05:04:11;12.53;;;3.50;;
16197;SDS011;8206;51.440;6.914;2024-02-21T05:06:38;2.87;;;2.63;;
16197;SDS011;8206;51.440;6.914;2024-02-21T05:09:05;2.27;;;2.00;;
16197;SDS011;8206;51.440;6.914;2024-02-21T05:11:32;7.13;;;1.80;;
16197;SDS011;8206;51.440;6.914;2024-02-21T05:13:59;1.23;;;1.23;;
16197;SDS011;8206;51.440;6.914;2024-02-21T05:16:27;1.87;;;1.77;;
16197;SDS011;8206;51.440;6.914;2024-02-21T05:18:53;1.27;;;1.17;;
16197;SDS011;8206;51.440;6.914;2024-02-21T05:21:21;2.50;;;2.30;;
16197;SDS011;8206;51.440;6.914;2024-02-21T05:23:48;1.87;;;1.77;;
16197;SDS011;8206;51.440;6.914;2024-02-21T05:26:19;6.37;;;3.33;;
16197;SDS011;8206;51.440;6.914;2024-02-21T05:28:47;3.70;;;2.50;;
16197;SDS011;8206;51.440;6.914;2024-02-21T05:31:14;1.83;;;1.73;;
16197;SDS011;8206;51.440;6.914;2024-02-21T05:33:42;2.63;;;2.53;;
16197;SDS011;8206;51.440;6.914;2024-02-21T05:36:09;2.03;;;1.97;;
16197;SDS011;8206;51.440;6.914;2024-02-21T05:38:36;1.93;;;1.93;;
16197;SDS011;8206;51.440;6.914;2024-02-21T05:41:03;3.50;;;3.30;;
16197;SDS011;8206;51.440;6.914;2024-02-21T05:43:29;1.07;;;1.07;;
16197;SDS011;8206;51.440;6.914;2024-02-21T05:45:56;1.13;;;1.13;;
16197;SDS011;8206;51.440;6.914;2024-02-21T05:48:23;2.57;;;2.40;;
16197;SDS011;8206;51.440;6.914;2024-02-21T05:50:52;2.20;;;2.07;;
16197;SDS011;8206;51.440;6.914;2024-02-21T05:53:18;1.10;;;1.10;;
16197;SDS011;8206;51.440;6.914;2024-02-21T05:55:45;1.33;;;1.33;;
16197;SDS011;8206;51.440;6.914;2024-02-21T05:58:12;1.37;;;1.27;;
16197;SDS011;8206;51.440;6.914;2024-02-21T06:00:38;6.20;;;3.13;;
16197;SDS011;8206;51.440;6.914;2024-02-21T06:03:05;4.43;;;2.40;;
16197;SDS011;8206;51.440;6.914;2024-02-21T06:05:36;2.33;;;2.13;;
16197;SDS011;8206;51.440;6.914;2024-02-21T06:08:05;15.67;;;3.00;;
16197;SDS011;8206;51.440;6.914;2024-02-21T06:10:32;3.03;;;2.83;;
16197;SDS011;8206;51.440;6.914;2024-02-21T06:12:58;2.37;;;2.27;;
16197;SDS011;8206;51.440;6.914;2024-02-21T06:15:25;6.13;;;2.80;;
16197;SDS011;8206;51.440;6.914;2024-02-21T06:17:52;2.73;;;1.97;;
16197;SDS011;8206;51.440;6.914;2024-02-21T06:20:18;3.50;;;2.20;;
16197;SDS011;8206;51.440;6.914;2024-02-21T06:22:45;1.20;;;1.20;;
16197;SDS011;8206;51.440;6.914;2024-02-21T06:25:13;2.07;;;1.67;;
16197;SDS011;8206;51.440;6.914;2024-02-21T06:27:39;9.33;;;2.67;;
16197;SDS011;8206;51.440;6.914;2024-02-21T06:30:06;1.80;;;1.53;;
16197;SDS011;8206;51.440;6.914;2024-02-21T06:32:34;1.07;;;1.07;;
16197;SDS011;8206;51.440;6.914;2024-02-21T06:35:00;1.97;;;1.77;;
16197;SDS011;8206;51.440;6.914;2024-02-21T06:37:27;2.70;;;2.50;;
16197;SDS011;8206;51.440;6.914;2024-02-21T06:39:55;1.23;;;1.23;;
16197;SDS011;8206;51.440;6.914;2024-02-21T06:42:24;25.40;;;2.17;;
16197;SDS011;8206;51.440;6.914;2024-02-21T06:44:51;2.17;;;1.70;;
16197;SDS011;8206;51.440;6.914;2024-02-21T06:47:18;17.50;;;3.37;;
16197;SDS011;8206;51.440;6.914;2024-02-21T06:49:47;4.87;;;3.30;;
16197;SDS011;8206;51.440;6.914;2024-02-21T06:52:14;3.10;;;2.33;;
16197;SDS011;8206;51.440;6.914;2024-02-21T06:54:42;4.37;;;3.43;;
16197;SDS011;8206;51.440;6.914;2024-02-21T06:57:08;10.00;;;2.57;;
16197;SDS011;8206;51.440;6.914;2024-02-21T06:59:36;3.43;;;2.27;;
16197;SDS011;8206;51.440;6.914;2024-02-21T07:02:03;2.00;;;1.67;;
16197;SDS011;8206;51.440;6.914;2024-02-21T07:04:30;5.77;;;1.87;;
16197;SDS011;8206;51.440;6.914;2024-02-21T07:06:56;2.63;;;1.93;;
16197;SDS011;8206;51.440;6.914;2024-02-21T07:09:23;2.20;;;1.33;;
16197;SDS011;8206;51.440;6.914;2024-02-21T07:11:50;2.40;;;2.23;;
16197;SDS011;8206;51.440;6.914;2024-02-21T07:14:17;6.73;;;2.00;;
16197;SDS011;8206;51.440;6.914;2024-02-21T07:16:46;0.83;;;0.83;;
16197;SDS011;8206;51.440;6.914;2024-02-21T07:19:12;1.90;;;1.73;;
16197;SDS011;8206;51.440;6.914;2024-02-21T07:21:39;1.80;;;1.70;;
16197;SDS011;8206;51.440;6.914;2024-02-21T07:24:07;1.73;;;1.63;;
16197;SDS011;8206;51.440;6.914;2024-02-21T07:26:34;2.20;;;2.10;;
16197;SDS011;8206;51.440;6.914;2024-02-21T07:29:00;2.17;;;2.03;;
16197;SDS011;8206;51.440;6.914;2024-02-21T07:31:27;1.57;;;1.57;;
16197;SDS011;8206;51.440;6.914;2024-02-21T07:33:55;5.13;;;2.93;;
16197;SDS011;8206;51.440;6.914;2024-02-21T07:36:27;1.67;;;1.30;;
16197;SDS011;8206;51.440;6.914;2024-02-21T07:38:54;7.10;;;2.77;;
16197;SDS011;8206;51.440;6.914;2024-02-21T07:41:21;2.80;;;2.03;;
16197;SDS011;8206;51.440;6.914;2024-02-21T07:43:48;1.63;;;1.50;;
16197;SDS011;8206;51.440;6.914;2024-02-21T07:46:15;4.77;;;2.83;;
16197;SDS011;8206;51.440;6.914;2024-02-21T07:48:41;4.50;;;1.80;;
16197;SDS011;8206;51.440;6.914;2024-02-21T07:51:09;1.90;;;1.40;;
16197;SDS011;8206;51.440;6.914;2024-02-21T07:53:36;2.97;;;1.27;;
16197;SDS011;8206;51.440;6.914;2024-02-21T07:56:09;1.73;;;1.50;;
16197;SDS011;8206;51.440;6.914;2024-02-21T07:58:36;1.77;;;1.67;;
16197;SDS011;8206;51.440;6.914;2024-02-21T08:01:03;9.77;;;1.93;;
16197;SDS011;8206;51.440;6.914;2024-02-21T08:03:29;1.17;;;1.17;;
16197;SDS011;8206;51.440;6.914;2024-02-21T08:05:56;0.73;;;0.73;;
16197;SDS011;8206;51.440;6.914;2024-02-21T08:08:24;6.30;;;2.00;;
16197;SDS011;8206;51.440;6.914;2024-02-21T08:10:51;1.20;;;1.20;;
16197;SDS011;8206;51.440;6.914;2024-02-21T08:13:18;1.20;;;1.20;;
16197;SDS011;8206;51.440;6.914;2024-02-21T08:15:44;3.93;;;3.57;;
16197;SDS011;8206;51.440;6.914;2024-02-21T08:18:11;1.50;;;0.93;;
16197;SDS011;8206;51.440;6.914;2024-02-21T08:20:38;1.87;;;1.70;;
16197;SDS011;8206;51.440;6.914;2024-02-21T08:23:04;1.00;;;1.00;;
16197;SDS011;8206;51.440;6.914;2024-02-21T08:25:32;1.00;;;1.00;;
16197;SDS011;8206;51.440;6.914;2024-02-21T08:27:59;1.83;;;1.73;;
16197;SDS011;8206;51.440;6.914;2024-02-21T08:30:26;1.23;;;1.17;;
16197;SDS011;8206;51.440;6.914;2024-02-21T08:32:53;2.03;;;1.80;;
16197;SDS011;8206;51.440;6.914;2024-02-21T08:35:20;4.47;;;2.70;;
16197;SDS011;8206;51.440;6.914;2024-02-21T08:37:47;0.97;;;0.97;;
16197;SDS011;8206;51.440;6.914;2024-02-21T08:40:14;6.97;;;1.47;;
16197;SDS011;8206;51.440;6.914;2024-02-21T08:42:44;1.63;;;1.60;;
16197;SDS011;8206;51.440;6.914;2024-02-21T08:45:10;1.23;;;0.90;;
16197;SDS011;8206;51.440;6.914;2024-02-21T08:47:39;1.40;;;1.37;;
16197;SDS011;8206;51.440;6.914;2024-02-21T08:50:06;3.30;;;0.77;;
16197;SDS011;8206;51.440;6.914;2024-02-21T08:52:34;0.40;;;0.40;;
16197;SDS011;8206;51.440;6.914;2024-02-21T08:55:01;3.13;;;2.70;;
16197;SDS011;8206;51.440;6.914;2024-02-21T08:57:28;1.93;;;1.83;;
16197;SDS011;8206;51.440;6.914;2024-02-21T09:00:02;1.87;;;1.77;;
16197;SDS011;8206;51.440;6.914;2024-02-21T09:02:34;1.00;;;1.00;;
16197;SDS011;8206;51.440;6.914;2024-02-21T09:05:01;1.57;;;1.47;;
16197;SDS011;8206;51.440;6.914;2024-02-21T09:07:30;4.23;;;1.47;;
16197;SDS011;8206;51.440;6.914;2024-02-21T09:09:56;10.63;;;0.97;;
16197;SDS011;8206;51.440;6.914;2024-02-21T09:12:23;5.37;;;1.30;;
16197;SDS011;8206;51.440;6.914;2024-02-21T09:14:50;0.60;;;0.60;;
16197;SDS011;8206;51.440;6.914;2024-02-21T09:17:18;1.07;;;1.07;;
16197;SDS011;8206;51.440;6.914;2024-02-21T09:19:45;2.67;;;1.93;;
16197;SDS011;8206;51.440;6.914;2024-02-21T09:22:12;1.83;;;1.73;;
16197;SDS011;8206;51.440;6.914;2024-02-21T09:24:39;2.60;;;2.40;;
16197;SDS011;8206;51.440;6.914;2024-02-21T09:27:06;0.60;;;0.60;;
16197;SDS011;8206;51.440;6.914;2024-02-21T09:29:32;1.60;;;1.23;;
16197;SDS011;8206;51.440;6.914;2024-02-21T09:31:59;11.03;;;1.93;;
16197;SDS011;8206;51.440;6.914;2024-02-21T09:34:27;4.53;;;1.70;;
16197;SDS011;8206;51.440;6.914;2024-02-21T09:36:54;1.83;;;1.73;;
16197;SDS011;8206;51.440;6.914;2024-02-21T09:39:20;1.50;;;1.40;;
16197;SDS011;8206;51.440;6.914;2024-02-21T09:41:48;0.70;;;0.70;;
16197;SDS011;8206;51.440;6.914;2024-02-21T09:44:20;0.87;;;0.50;;
16197;SDS011;8206;51.440;6.914;2024-02-21T09:46:51;0.50;;;0.50;;
16197;SDS011;8206;51.440;6.914;2024-02-21T09:49:25;0.50;;;0.50;;
16197;SDS011;8206;51.440;6.914;2024-02-21T09:51:59;1.27;;;1.27;;
16197;SDS011;8206;51.440;6.914;2024-02-21T09:54:28;1.90;;;1.73;;
16197;SDS011;8206;51.440;6.914;2024-02-21T09:56:56;1.37;;;1.37;;
16197;SDS011;8206;51.440;6.914;2024-02-21T09:59:23;1.13;;;1.13;;
16197;SDS011;8206;51.440;6.914;2024-02-21T10:01:51;0.83;;;0.83;;
16197;SDS011;8206;51.440;6.914;2024-02-21T10:04:17;0.97;;;0.97;;
16197;SDS011;8206;51.440;6.914;2024-02-21T10:06:46;13.53;;;1.53;;
16197;SDS011;8206;51.440;6.914;2024-02-21T10:09:22;2.07;;;1.93;;
16197;SDS011;8206;51.440;6.914;2024-02-21T10:11:49;1.07;;;1.07;;
16197;SDS011;8206;51.440;6.914;2024-02-21T10:14:16;5.23;;;1.03;;
16197;SDS011;8206;51.440;6.914;2024-02-21T10:16:43;0.90;;;0.90;;
16197;SDS011;8206;51.440;6.914;2024-02-21T10:19:17;1.47;;;1.47;;
16197;SDS011;8206;51.440;6.914;2024-02-21T10:21:44;1.10;;;1.10;;
16197;SDS011;8206;51.440;6.914;2024-02-21T10:24:25;0.47;;;0.47;;
16197;SDS011;8206;51.440;6.914;2024-02-21T10:26:58;0.83;;;0.83;;
16197;SDS011;8206;51.440;6.914;2024-02-21T10:29:25;2.33;;;1.37;;
16197;SDS011;8206;51.440;6.914;2024-02-21T10:31:52;6.90;;;1.20;;
16197;SDS011;8206;51.440;6.914;2024-02-21T10:34:29;1.50;;;0.83;;
16197;SDS011;8206;51.440;6.914;2024-02-21T10:37:00;5.73;;;1.50;;
16197;SDS011;8206;51.440;6.914;2024-02-21T10:39:28;1.37;;;0.80;;
16197;SDS011;8206;51.440;6.914;2024-02-21T10:41:55;1.40;;;0.93;;
16197;SDS011;8206;51.440;6.914;2024-02-21T10:44:26;0.97;;;0.97;;
16197;SDS011;8206;51.440;6.914;2024-02-21T10:46:55;5.93;;;1.53;;
16197;SDS011;8206;51.440;6.914;2024-02-21T10:49:23;1.07;;;1.07;;
16197;SDS011;8206;51.440;6.914;2024-02-21T10:51:53;1.17;;;1.07;;
16197;SDS011;8206;51.440;6.914;2024-02-21T10:54:33;2.80;;;0.73;;
16197;SDS011;8206;51.440;6.914;2024-02-21T10:57:06;0.43;;;0.43;;
16197;SDS011;8206;51.440;6.914;2024-02-21T10:59:37;2.57;;;1.63;;
16197;SDS011;8206;51.440;6.914;2024-02-21T11:02:05;1.40;;;1.30;;
16197;SDS011;8206;51.440;6.914;2024-02-21T11:04:32;1.27;;;1.27;;
16197;SDS011;8206;51.440;6.914;2024-02-21T11:07:01;1.93;;;1.83;;
16197;SDS011;8206;51.440;6.914;2024-02-21T11:09:31;1.67;;;1.33;;
16197;SDS011;8206;51.440;6.914;2024-02-21T11:11:58;1.97;;;1.80;;
16197;SDS011;8206;51.440;6.914;2024-02-21T11:14:28;3.07;;;2.60;;
16197;SDS011;8206;51.440;6.914;2024-02-21T11:16:57;0.60;;;0.60;;
16197;SDS011;8206;51.440;6.914;2024-02-21T11:19:25;1.10;;;1.00;;
16197;SDS011;8206;51.440;6.914;2024-02-21T11:21:52;2.33;;;0.87;;
16197;SDS011;8206;51.440;6.914;2024-02-21T11:24:27;1.87;;;0.40;;
16197;SDS011;8206;51.440;6.914;2024-02-21T11:26:56;0.97;;;0.97;;
16197;SDS011;8206;51.440;6.914;2024-02-21T11:29:39;1.50;;;1.40;;
16197;SDS011;8206;51.440;6.914;2024-02-21T11:32:08;1.27;;;1.20;;
16197;SDS011;8206;51.440;6.914;2024-02-21T11:34:35;4.07;;;1.27;;
16197;SDS011;8206;51.440;6.914;2024-02-21T11:37:02;2.20;;;1.43;;
16197;SDS011;8206;51.440;6.914;2024-02-21T11:39:40;1.37;;;1.27;;
16197;SDS011;8206;51.440;6.914;2024-02-21T11:42:09;1.17;;;1.17;;
16197;SDS011;8206;51.440;6.914;2024-02-21T11:44:37;0.70;;;0.70;;
16197;SDS011;8206;51.440;6.914;2024-02-21T11:47:05;2.00;;;0.87;;
16197;SDS011;8206;51.440;6.914;2024-02-21T11:49:36;2.63;;;1.17;;
16197;SDS011;8206;51.440;6.914;2024-02-21T11:52:04;1.27;;;1.27;;
16197;SDS011;8206;51.440;6.914;2024-02-21T11:54:32;2.90;;;0.97;;
16197;SDS011;8206;51.440;6.914;2024-02-21T11:56:59;3.87;;;1.57;;
16197;SDS011;8206;51.440;6.914;2024-02-21T11:59:29;1.10;;;1.00;;
16197;SDS011;8206;51.440;6.914;2024-02-21T12:01:57;0.73;;;0.70;;
16197;SDS011;8206;51.440;6.914;2024-02-21T12:04:24;1.60;;;1.53;;
16197;SDS011;8206;51.440;6.914;2024-02-21T12:06:52;1.97;;;1.53;;
16197;SDS011;8206;51.440;6.914;2024-02-21T12:09:19;1.73;;;1.63;;
16197;SDS011;8206;51.440;6.914;2024-02-21T12:11:56;1.67;;;1.57;;
16197;SDS011;8206;51.440;6.914;2024-02-21T12:14:24;1.93;;;1.83;;
16197;SDS011;8206;51.440;6.914;2024-02-21T12:16:52;1.73;;;1.63;;
16197;SDS011;8206;51.440;6.914;2024-02-21T12:19:20;4.13;;;1.13;;
16197;SDS011;8206;51.440;6.914;2024-02-21T12:21:47;0.57;;;0.57;;
16197;SDS011;8206;51.440;6.914;2024-02-21T12:24:15;0.93;;;0.80;;
16197;SDS011;8206;51.440;6.914;2024-02-21T12:26:42;4.00;;;1.60;;
16197;SDS011;8206;51.440;6.914;2024-02-21T12:29:09;0.40;;;0.40;;
16197;SDS011;8206;51.440;6.914;2024-02-21T12:31:36;0.43;;;0.43;;
16197;SDS011;8206;51.440;6.914;2024-02-21T12:34:04;1.90;;;1.80;;
16197;SDS011;8206;51.440;6.914;2024-02-21T12:36:31;1.33;;;1.23;;
16197;SDS011;8206;51.440;6.914;2024-02-21T12:38:59;3.03;;;1.10;;
16197;SDS011;8206;51.440;6.914;2024-02-21T12:41:28;2.37;;;2.20;;
16197;SDS011;8206;51.440;6.914;2024-02-21T12:43:55;0.40;;;0.40;;
16197;SDS011;8206;51.440;6.914;2024-02-21T12:46:21;1.60;;;1.47;;
16197;SDS011;8206;51.440;6.914;2024-02-21T12:48:48;1.00;;;0.97;;
16197;SDS011;8206;51.440;6.914;2024-02-21T12:51:17;1.27;;;1.17;;
16197;SDS011;8206;51.440;6.914;2024-02-21T12:53:45;3.92;;;1.80;;
16197;SDS011;8206;51.440;6.914;2024-02-21T12:56:12;1.75;;;1.65;;
16197;SDS011;8206;51.440;6.914;2024-02-21T12:58:39;0.70;;;0.70;;
16197;SDS011;8206;51.440;6.914;2024-02-21T13:01:06;1.37;;;1.30;;
16197;SDS011;8206;51.440;6.914;2024-02-21T13:03:32;1.30;;;1.20;;
16197;SDS011;8206;51.440;6.914;2024-02-21T13:05:59;1.23;;;1.23;;
16197;SDS011;8206;51.440;6.914;2024-02-21T13:08:27;7.93;;;1.52;;
16197;SDS011;8206;51.440;6.914;2024-02-21T13:10:54;1.20;;;1.20;;
16197;SDS011;8206;51.440;6.914;2024-02-21T13:13:21;0.27;;;0.27;;
16197;SDS011;8206;51.440;6.914;2024-02-21T13:15:47;3.33;;;1.95;;
16197;SDS011;8206;51.440;6.914;2024-02-21T13:18:14;0.30;;;0.30;;
16197;SDS011;8206;51.440;6.914;2024-02-21T13:20:41;1.30;;;1.20;;
16197;SDS011;8206;51.440;6.914;2024-02-21T13:23:07;0.63;;;0.63;;
16197;SDS011;8206;51.440;6.914;2024-02-21T13:25:35;6.30;;;0.95;;
16197;SDS011;8206;51.440;6.914;2024-02-21T13:28:02;1.02;;;0.82;;
16197;SDS011;8206;51.440;6.914;2024-02-21T13:30:29;2.17;;;1.30;;
16197;SDS011;8206;51.440;6.914;2024-02-21T13:32:56;0.47;;;0.47;;
16197;SDS011;8206;51.440;6.914;2024-02-21T13:35:22;1.05;;;1.05;;
16197;SDS011;8206;51.440;6.914;2024-02-21T13:37:49;0.77;;;0.65;;
16197;SDS011;8206;51.440;6.914;2024-02-21T13:40:16;2.42;;;1.10;;
16197;SDS011;8206;51.440;6.914;2024-02-21T13:42:44;4.72;;;1.38;;
16197;SDS011;8206;51.440;6.914;2024-02-21T13:45:11;2.15;;;1.00;;
16197;SDS011;8206;51.440;6.914;2024-02-21T13:47:37;1.50;;;1.27;;
16197;SDS011;8206;51.440;6.914;2024-02-21T13:50:05;1.60;;;1.42;;
16197;SDS011;8206;51.440;6.914;2024-02-21T13:52:34;0.97;;;0.83;;
16197;SDS011;8206;51.440;6.914;2024-02-21T13:55:00;0.50;;;0.50;;
16197;SDS011;8206;51.440;6.914;2024-02-21T13:57:27;3.22;;;1.60;;
16197;SDS011;8206;51.440;6.914;2024-02-21T13:59:55;1.60;;;1.50;;
16197;SDS011;8206;51.440;6.914;2024-02-21T14:02:22;1.70;;;0.97;;
16197;SDS011;8206;51.440;6.914;2024-02-21T14:04:49;1.90;;;1.80;;
16197;SDS011;8206;51.440;6.914;2024-02-21T14:07:16;2.57;;;1.27;;
16197;SDS011;8206;51.440;6.914;2024-02-21T14:09:43;0.97;;;0.97;;
16197;SDS011;8206;51.440;6.914;2024-02-21T14:12:09;2.30;;;1.70;;
16197;SDS011;8206;51.440;6.914;2024-02-21T14:14:36;1.90;;;1.43;;
16197;SDS011;8206;51.440;6.914;2024-02-21T14:17:05;3.70;;;1.60;;
16197;SDS011;8206;51.440;6.914;2024-02-21T14:19:31;4.30;;;1.03;;
16197;SDS011;8206;51.440;6.914;2024-02-21T14:21:58;2.10;;;0.63;;
16197;SDS011;8206;51.440;6.914;2024-02-21T14:24:25;1.33;;;1.23;;
16197;SDS011;8206;51.440;6.914;2024-02-21T14:26:52;2.58;;;2.38;;
16197;SDS011;8206;51.440;6.914;2024-02-21T14:29:19;1.02;;;1.02;;
16197;SDS011;8206;51.440;6.914;2024-02-21T14:31:47;4.37;;;0.97;;
16197;SDS011;8206;51.440;6.914;2024-02-21T14:34:14;0.68;;;0.68;;
16197;SDS011;8206;51.440;6.914;2024-02-21T14:36:41;0.50;;;0.50;;
16197;SDS011;8206;51.440;6.914;2024-02-21T14:39:08;2.20;;;1.30;;
16197;SDS011;8206;51.440;6.914;2024-02-21T14:41:35;0.73;;;0.73;;
16197;SDS011;8206;51.440;6.914;2024-02-21T14:44:02;1.17;;;1.08;;
16197;SDS011;8206;51.440;6.914;2024-02-21T14:46:28;0.30;;;0.30;;
16197;SDS011;8206;51.440;6.914;2024-02-21T14:48:55;1.52;;;0.82;;
16197;SDS011;8206;51.440;6.914;2024-02-21T14:51:23;0.93;;;0.73;;
16197;SDS011;8206;51.440;6.914;2024-02-21T14:53:50;0.90;;;0.60;;
16197;SDS011;8206;51.440;6.914;2024-02-21T14:56:16;0.45;;;0.45;;
16197;SDS011;8206;51.440;6.914;2024-02-21T14:58:43;1.15;;;1.08;;
16197;SDS011;8206;51.440;6.914;2024-02-21T15:01:12;3.70;;;1.07;;